sensor_id;sensor_type;location;lat;lon;timestamp;pressure;altitude;pressure_sealevel;temperature;humidity
84271;BME280;74614;50.032;19.566;2024-03-08T00:01:35;99270.93;;;1.50;64.47
84271;BME280;74614;50.032;19.566;2024-03-08T00:04:35;99269.96;;;1.55;64.57
84271;BME280;74614;50.032;19.566;2024-03-08T00:06:42;99276.23;;;1.66;64.62
84271;BME280;74614;50.032;19.566;2024-03-08T00:09:31;99274.39;;;1.69;64.48
84271;BME280;74614;50.032;19.566;2024-03-08T00:11:29;99270.59;;;1.77;64.55
84271;BME280;74614;50.032;19.566;2024-03-08T00:13:28;99267.34;;;1.86;64.40
84271;BME280;74614;50.032;19.566;2024-03-08T00:15:33;99274.08;;;1.99;64.29
84271;BME280;74614;50.032;19.566;2024-03-08T00:17:27;99272.83;;;2.02;63.59
84271;BME280;74614;50.032;19.566;2024-03-08T00:19:31;99265.34;;;1.97;63.71
84271;BME280;74614;50.032;19.566;2024-03-08T00:21:27;99267.38;;;2.02;63.82
84271;BME280;74614;50.032;19.566;2024-03-08T00:23:48;99268.25;;;2.10;63.78
84271;BME280;74614;50.032;19.566;2024-03-08T00:26:26;99262.43;;;2.00;64.07
84271;BME280;74614;50.032;19.566;2024-03-08T00:28:22;99270.79;;;2.07;64.02
84271;BME280;74614;50.032;19.566;2024-03-08T00:30:27;99266.13;;;1.84;64.02
84271;BME280;74614;50.032;19.566;2024-03-08T00:33:28;99263.15;;;1.71;64.44
84271;BME280;74614;50.032;19.566;2024-03-08T00:35:29;99257.21;;;1.65;64.70
84271;BME280;74614;50.032;19.566;2024-03-08T00:37:29;99254.66;;;1.55;64.87
84271;BME280;74614;50.032;19.566;2024-03-08T00:39:29;99254.14;;;1.44;65.31
84271;BME280;74614;50.032;19.566;2024-03-08T00:41:28;99251.43;;;1.41;65.33
84271;BME280;74614;50.032;19.566;2024-03-08T00:43:35;99252.45;;;1.45;65.27
84271;BME280;74614;50.032;19.566;2024-03-08T00:46:35;99249.14;;;1.40;65.22
84271;BME280;74614;50.032;19.566;2024-03-08T00:49:34;99246.88;;;1.40;65.01
84271;BME280;74614;50.032;19.566;2024-03-08T00:51:35;99245.59;;;1.42;65.24
84271;BME280;74614;50.032;19.566;2024-03-08T00:53:29;99249.03;;;1.44;65.21
84271;BME280;74614;50.032;19.566;2024-03-08T00:55:30;99240.79;;;1.40;64.97
84271;BME280;74614;50.032;19.566;2024-03-08T00:57:30;99245.07;;;1.30;65.30
84271;BME280;74614;50.032;19.566;2024-03-08T00:59:32;99242.36;;;1.33;65.51
84271;BME280;74614;50.032;19.566;2024-03-08T01:01:29;99234.27;;;1.34;65.22
84271;BME280;74614;50.032;19.566;2024-03-08T01:03:28;99242.09;;;1.37;65.21
84271;BME280;74614;50.032;19.566;2024-03-08T01:05:28;99238.42;;;1.40;65.35
84271;BME280;74614;50.032;19.566;2024-03-08T01:07:27;99237.70;;;1.39;64.91
84271;BME280;74614;50.032;19.566;2024-03-08T01:09:31;99227.07;;;1.33;64.99
84271;BME280;74614;50.032;19.566;2024-03-08T01:11:28;99235.56;;;1.44;65.27
84271;BME280;74614;50.032;19.566;2024-03-08T01:13:28;99231.90;;;1.47;65.17
84271;BME280;74614;50.032;19.566;2024-03-08T01:15:29;99222.83;;;1.48;64.95
84271;BME280;74614;50.032;19.566;2024-03-08T01:17:29;99229.03;;;1.41;65.02
84271;BME280;74614;50.032;19.566;2024-03-08T01:19:26;99223.61;;;1.44;65.09
84271;BME280;74614;50.032;19.566;2024-03-08T01:21:30;99222.93;;;1.49;64.80
84271;BME280;74614;50.032;19.566;2024-03-08T01:23:27;99222.81;;;1.58;65.13
84271;BME280;74614;50.032;19.566;2024-03-08T01:25:30;99216.94;;;1.62;64.73
84271;BME280;74614;50.032;19.566;2024-03-08T01:27:29;99214.21;;;1.60;64.77
84271;BME280;74614;50.032;19.566;2024-03-08T01:29:26;99213.46;;;1.54;64.47
84271;BME280;74614;50.032;19.566;2024-03-08T01:31:28;99217.01;;;1.49;64.63
84271;BME280;74614;50.032;19.566;2024-03-08T01:33:33;99211.28;;;1.32;64.68
84271;BME280;74614;50.032;19.566;2024-03-08T01:35:30;99211.98;;;1.31;65.09
84271;BME280;74614;50.032;19.566;2024-03-08T01:37:28;99212.24;;;1.39;64.77
84271;BME280;74614;50.032;19.566;2024-03-08T01:39:29;99206.99;;;1.46;64.87
84271;BME280;74614;50.032;19.566;2024-03-08T01:41:30;99208.27;;;1.38;64.84
84271;BME280;74614;50.032;19.566;2024-03-08T01:43:28;99206.80;;;1.33;64.98
84271;BME280;74614;50.032;19.566;2024-03-08T01:45:28;99194.83;;;1.22;64.92
84271;BME280;74614;50.032;19.566;2024-03-08T01:47:31;99204.14;;;1.31;65.09
84271;BME280;74614;50.032;19.566;2024-03-08T01:49:28;99201.57;;;1.23;65.05
84271;BME280;74614;50.032;19.566;2024-03-08T01:51:28;99200.69;;;1.15;65.27
84271;BME280;74614;50.032;19.566;2024-03-08T01:53:30;99200.48;;;1.10;65.39
84271;BME280;74614;50.032;19.566;2024-03-08T01:55:30;99198.06;;;1.16;65.50
84271;BME280;74614;50.032;19.566;2024-03-08T01:57:27;99197.90;;;1.14;65.66
84271;BME280;74614;50.032;19.566;2024-03-08T01:59:36;99197.37;;;1.11;65.26
84271;BME280;74614;50.032;19.566;2024-03-08T02:02:35;99190.29;;;1.17;65.34
84271;BME280;74614;50.032;19.566;2024-03-08T02:04:29;99192.61;;;1.22;65.04
84271;BME280;74614;50.032;19.566;2024-03-08T02:06:33;99191.94;;;1.32;64.88
84271;BME280;74614;50.032;19.566;2024-03-08T02:08:30;99182.62;;;1.25;64.39
84271;BME280;74614;50.032;19.566;2024-03-08T02:10:32;99183.49;;;1.18;64.76
84271;BME280;74614;50.032;19.566;2024-03-08T02:12:28;99191.01;;;1.26;64.77
84271;BME280;74614;50.032;19.566;2024-03-08T02:14:36;99189.51;;;1.17;64.19
84271;BME280;74614;50.032;19.566;2024-03-08T02:17:27;99186.11;;;1.18;64.36
84271;BME280;74614;50.032;19.566;2024-03-08T02:19:28;99188.15;;;1.09;64.11
84271;BME280;74614;50.032;19.566;2024-03-08T02:21:27;99181.02;;;0.97;64.37
84271;BME280;74614;50.032;19.566;2024-03-08T02:23:26;99184.36;;;1.01;64.10
84271;BME280;74614;50.032;19.566;2024-03-08T02:25:34;99181.70;;;1.11;64.44
84271;BME280;74614;50.032;19.566;2024-03-08T02:28:20;99177.90;;;1.07;64.18
84271;BME280;74614;50.032;19.566;2024-03-08T02:30:27;99178.01;;;1.02;64.23
84271;BME280;74614;50.032;19.566;2024-03-08T02:33:29;99180.68;;;1.01;64.11
84271;BME280;74614;50.032;19.566;2024-03-08T02:35:29;99179.45;;;1.03;64.09
84271;BME280;74614;50.032;19.566;2024-03-08T02:37:27;99186.22;;;1.02;63.89
84271;BME280;74614;50.032;19.566;2024-03-08T02:39:28;99181.65;;;0.96;63.67
84271;BME280;74614;50.032;19.566;2024-03-08T02:41:27;99176.28;;;1.01;64.25
84271;BME280;74614;50.032;19.566;2024-03-08T02:43:30;99174.03;;;0.93;63.88
84271;BME280;74614;50.032;19.566;2024-03-08T02:45:32;99183.39;;;1.02;64.19
84271;BME280;74614;50.032;19.566;2024-03-08T02:47:40;99185.03;;;0.95;63.95
84271;BME280;74614;50.032;19.566;2024-03-08T02:50:37;99184.13;;;1.09;63.95
84271;BME280;74614;50.032;19.566;2024-03-08T02:53:27;99191.12;;;1.10;63.69
84271;BME280;74614;50.032;19.566;2024-03-08T02:55:29;99187.24;;;1.15;64.06
84271;BME280;74614;50.032;19.566;2024-03-08T02:57:34;99181.60;;;1.07;63.51
84271;BME280;74614;50.032;19.566;2024-03-08T03:00:24;99182.36;;;1.07;63.65
84271;BME280;74614;50.032;19.566;2024-03-08T03:02:26;99183.21;;;1.16;63.64
84271;BME280;74614;50.032;19.566;2024-03-08T03:05:09;99183.52;;;1.05;63.81
84271;BME280;74614;50.032;19.566;2024-03-08T03:07:28;99167.63;;;0.90;63.41
84271;BME280;74614;50.032;19.566;2024-03-08T03:09:39;99177.60;;;0.81;63.80
84271;BME280;74614;50.032;19.566;2024-03-08T03:12:31;99178.28;;;0.81;64.26
84271;BME280;74614;50.032;19.566;2024-03-08T03:14:36;99177.92;;;0.83;64.35
84271;BME280;74614;50.032;19.566;2024-03-08T03:17:29;99173.49;;;0.75;64.24
84271;BME280;74614;50.032;19.566;2024-03-08T03:19:33;99174.10;;;0.81;64.30
84271;BME280;74614;50.032;19.566;2024-03-08T03:21:32;99174.58;;;0.70;64.23
84271;BME280;74614;50.032;19.566;2024-03-08T03:23:28;99171.48;;;0.79;64.16
84271;BME280;74614;50.032;19.566;2024-03-08T03:25:41;99173.69;;;0.71;64.69
84271;BME280;74614;50.032;19.566;2024-03-08T03:28:41;99174.32;;;0.89;64.39
84271;BME280;74614;50.032;19.566;2024-03-08T03:30:41;99172.03;;;0.89;64.21
84271;BME280;74614;50.032;19.566;2024-03-08T03:33:29;99174.03;;;0.92;64.34
84271;BME280;74614;50.032;19.566;2024-03-08T03:35:37;99168.43;;;0.82;64.34
84271;BME280;74614;50.032;19.566;2024-03-08T03:38:37;99169.45;;;0.74;64.11
84271;BME280;74614;50.032;19.566;2024-03-08T03:41:27;99172.77;;;0.68;64.28
84271;BME280;74614;50.032;19.566;2024-03-08T03:43:27;99177.55;;;0.80;64.38
84271;BME280;74614;50.032;19.566;2024-03-08T03:45:33;99177.92;;;0.70;64.32
84271;BME280;74614;50.032;19.566;2024-03-08T03:47:28;99176.34;;;0.78;64.31
84271;BME280;74614;50.032;19.566;2024-03-08T03:49:27;99176.98;;;0.74;64.38
84271;BME280;74614;50.032;19.566;2024-03-08T03:51:30;99178.26;;;0.79;64.29
84271;BME280;74614;50.032;19.566;2024-03-08T03:53:37;99163.95;;;0.73;64.44
84271;BME280;74614;50.032;19.566;2024-03-08T03:56:28;99171.50;;;0.80;64.02
84271;BME280;74614;50.032;19.566;2024-03-08T03:58:34;99165.03;;;0.78;63.91
84271;BME280;74614;50.032;19.566;2024-03-08T04:01:29;99177.16;;;0.83;64.22
84271;BME280;74614;50.032;19.566;2024-03-08T04:03:28;99174.08;;;0.84;63.83
84271;BME280;74614;50.032;19.566;2024-03-08T04:05:25;99172.10;;;0.85;63.75
84271;BME280;74614;50.032;19.566;2024-03-08T04:07:30;99171.91;;;0.90;63.85
84271;BME280;74614;50.032;19.566;2024-03-08T04:09:40;99168.98;;;0.96;63.74
84271;BME280;74614;50.032;19.566;2024-03-08T04:12:21;99166.44;;;0.77;63.45
84271;BME280;74614;50.032;19.566;2024-03-08T04:14:28;99166.29;;;0.78;63.63
84271;BME280;74614;50.032;19.566;2024-03-08T04:17:35;99173.47;;;0.82;63.90
84271;BME280;74614;50.032;19.566;2024-03-08T04:20:07;99165.25;;;0.90;63.67
84271;BME280;74614;50.032;19.566;2024-03-08T04:22:27;99167.26;;;0.94;63.93
84271;BME280;74614;50.032;19.566;2024-03-08T04:24:33;99171.36;;;0.91;63.65
84271;BME280;74614;50.032;19.566;2024-03-08T04:26:41;99172.81;;;0.91;63.79
84271;BME280;74614;50.032;19.566;2024-03-08T04:29:25;99168.71;;;0.92;64.00
84271;BME280;74614;50.032;19.566;2024-03-08T04:31:35;99169.03;;;0.75;63.92
84271;BME280;74614;50.032;19.566;2024-03-08T04:33:38;99171.45;;;0.83;64.14
84271;BME280;74614;50.032;19.566;2024-03-08T04:35:37;99174.15;;;0.91;63.67
84271;BME280;74614;50.032;19.566;2024-03-08T04:38:28;99174.74;;;0.90;63.64
84271;BME280;74614;50.032;19.566;2024-03-08T04:40:30;99180.22;;;0.96;63.77
84271;BME280;74614;50.032;19.566;2024-03-08T04:42:27;99177.76;;;0.99;63.74
84271;BME280;74614;50.032;19.566;2024-03-08T04:44:36;99177.56;;;0.92;63.67
84271;BME280;74614;50.032;19.566;2024-03-08T04:46:28;99176.17;;;0.90;63.80
84271;BME280;74614;50.032;19.566;2024-03-08T04:48:30;99162.07;;;0.80;63.77
84271;BME280;74614;50.032;19.566;2024-03-08T04:50:28;99175.68;;;0.87;63.74
84271;BME280;74614;50.032;19.566;2024-03-08T04:52:28;99181.30;;;0.91;63.71
84271;BME280;74614;50.032;19.566;2024-03-08T04:54:29;99176.66;;;0.72;63.75
84271;BME280;74614;50.032;19.566;2024-03-08T04:56:27;99179.48;;;0.82;63.83
84271;BME280;74614;50.032;19.566;2024-03-08T04:58:31;99181.94;;;0.93;63.76
84271;BME280;74614;50.032;19.566;2024-03-08T05:00:29;99174.45;;;0.93;63.89
84271;BME280;74614;50.032;19.566;2024-03-08T05:02:28;99174.96;;;0.97;63.80
84271;BME280;74614;50.032;19.566;2024-03-08T05:04:27;99185.36;;;0.92;63.71
84271;BME280;74614;50.032;19.566;2024-03-08T05:06:28;99181.76;;;0.90;63.83
84271;BME280;74614;50.032;19.566;2024-03-08T05:08:35;99175.87;;;0.79;63.65
84271;BME280;74614;50.032;19.566;2024-03-08T05:11:26;99183.90;;;0.83;63.75
84271;BME280;74614;50.032;19.566;2024-03-08T05:13:20;99180.86;;;0.78;63.72
84271;BME280;74614;50.032;19.566;2024-03-08T05:15:28;99186.24;;;0.82;64.09
84271;BME280;74614;50.032;19.566;2024-03-08T05:17:32;99181.44;;;0.82;63.83
84271;BME280;74614;50.032;19.566;2024-03-08T05:19:36;99181.74;;;0.84;63.82
84271;BME280;74614;50.032;19.566;2024-03-08T05:21:30;99190.54;;;0.83;64.17
84271;BME280;74614;50.032;19.566;2024-03-08T05:23:39;99185.79;;;0.87;64.37
84271;BME280;74614;50.032;19.566;2024-03-08T05:26:31;99188.47;;;0.61;64.51
84271;BME280;74614;50.032;19.566;2024-03-08T05:28:28;99189.70;;;0.77;64.58
84271;BME280;74614;50.032;19.566;2024-03-08T05:30:38;99189.57;;;0.78;64.09
84271;BME280;74614;50.032;19.566;2024-03-08T05:32:42;99190.72;;;0.79;64.14
84271;BME280;74614;50.032;19.566;2024-03-08T05:35:33;99189.34;;;0.71;64.36
84271;BME280;74614;50.032;19.566;2024-03-08T05:37:29;99189.57;;;0.74;64.04
84271;BME280;74614;50.032;19.566;2024-03-08T05:39:34;99192.10;;;0.68;64.07
84271;BME280;74614;50.032;19.566;2024-03-08T05:41:29;99181.02;;;0.59;64.52
84271;BME280;74614;50.032;19.566;2024-03-08T05:44:12;99183.45;;;0.58;64.52
84271;BME280;74614;50.032;19.566;2024-03-08T05:44:19;99183.39;;;0.64;64.38
84271;BME280;74614;50.032;19.566;2024-03-08T05:46:29;99180.63;;;0.58;64.29
84271;BME280;74614;50.032;19.566;2024-03-08T05:48:31;99191.15;;;0.57;64.14
84271;BME280;74614;50.032;19.566;2024-03-08T05:50:26;99188.12;;;0.55;64.11
84271;BME280;74614;50.032;19.566;2024-03-08T05:52:26;99191.86;;;0.41;64.21
84271;BME280;74614;50.032;19.566;2024-03-08T05:54:35;99193.49;;;0.53;64.31
84271;BME280;74614;50.032;19.566;2024-03-08T05:56:33;99184.58;;;0.55;64.03
84271;BME280;74614;50.032;19.566;2024-03-08T05:58:26;99184.28;;;0.36;64.43
84271;BME280;74614;50.032;19.566;2024-03-08T06:00:30;99188.45;;;0.46;64.14
84271;BME280;74614;50.032;19.566;2024-03-08T06:02:33;99192.52;;;0.54;64.32
84271;BME280;74614;50.032;19.566;2024-03-08T06:04:33;99190.48;;;0.51;64.43
84271;BME280;74614;50.032;19.566;2024-03-08T06:06:29;99188.99;;;0.61;64.46
84271;BME280;74614;50.032;19.566;2024-03-08T06:08:39;99185.59;;;0.60;64.20
84271;BME280;74614;50.032;19.566;2024-03-08T06:11:39;99191.73;;;0.73;64.27
84271;BME280;74614;50.032;19.566;2024-03-08T06:14:31;99187.97;;;0.74;64.07
84271;BME280;74614;50.032;19.566;2024-03-08T06:14:40;99187.97;;;0.74;64.07
84271;BME280;74614;50.032;19.566;2024-03-08T06:17:34;99190.17;;;0.70;64.19
84271;BME280;74614;50.032;19.566;2024-03-08T06:19:34;99196.45;;;0.84;64.35
84271;BME280;74614;50.032;19.566;2024-03-08T06:21:30;99192.96;;;0.75;63.66
84271;BME280;74614;50.032;19.566;2024-03-08T06:23:37;99195.68;;;0.77;63.68
84271;BME280;74614;50.032;19.566;2024-03-08T06:26:32;99196.92;;;0.85;64.10
84271;BME280;74614;50.032;19.566;2024-03-08T06:28:27;99194.35;;;0.88;63.83
84271;BME280;74614;50.032;19.566;2024-03-08T06:30:42;99194.35;;;0.96;63.74
84271;BME280;74614;50.032;19.566;2024-03-08T06:33:21;99194.74;;;1.03;64.61
84271;BME280;74614;50.032;19.566;2024-03-08T06:35:27;99197.23;;;1.19;63.30
84271;BME280;74614;50.032;19.566;2024-03-08T06:38:30;99195.62;;;1.08;63.57
84271;BME280;74614;50.032;19.566;2024-03-08T06:40:28;99195.29;;;1.09;63.28
84271;BME280;74614;50.032;19.566;2024-03-08T06:42:26;99198.13;;;0.88;63.33
84271;BME280;74614;50.032;19.566;2024-03-08T06:44:30;99196.68;;;0.89;63.94
84271;BME280;74614;50.032;19.566;2024-03-08T06:46:30;99190.92;;;0.78;63.71
84271;BME280;74614;50.032;19.566;2024-03-08T06:48:29;99194.86;;;0.77;63.63
84271;BME280;74614;50.032;19.566;2024-03-08T06:50:27;99192.47;;;0.86;63.56
84271;BME280;74614;50.032;19.566;2024-03-08T06:52:28;99193.59;;;0.76;63.88
84271;BME280;74614;50.032;19.566;2024-03-08T06:54:27;99191.35;;;0.73;63.87
84271;BME280;74614;50.032;19.566;2024-03-08T06:56:26;99193.05;;;0.63;63.93
84271;BME280;74614;50.032;19.566;2024-03-08T06:58:28;99192.96;;;0.50;64.68
84271;BME280;74614;50.032;19.566;2024-03-08T07:00:35;99191.45;;;0.55;64.49
84271;BME280;74614;50.032;19.566;2024-03-08T07:02:33;99184.73;;;0.79;64.23
84271;BME280;74614;50.032;19.566;2024-03-08T07:04:37;99184.49;;;0.83;63.94
84271;BME280;74614;50.032;19.566;2024-03-08T07:07:48;99184.16;;;0.90;63.70
84271;BME280;74614;50.032;19.566;2024-03-08T07:10:26;99185.70;;;0.62;64.10
84271;BME280;74614;50.032;19.566;2024-03-08T07:12:30;99182.87;;;0.69;63.80
84271;BME280;74614;50.032;19.566;2024-03-08T07:14:30;99180.61;;;0.68;64.25
84271;BME280;74614;50.032;19.566;2024-03-08T07:16:37;99180.86;;;0.80;63.70
84271;BME280;74614;50.032;19.566;2024-03-08T07:19:33;99177.23;;;0.81;63.73
84271;BME280;74614;50.032;19.566;2024-03-08T07:21:27;99170.31;;;0.82;63.76
84271;BME280;74614;50.032;19.566;2024-03-08T07:24:58;99181.41;;;0.98;63.38
84271;BME280;74614;50.032;19.566;2024-03-08T07:27:34;99178.80;;;0.83;64.05
84271;BME280;74614;50.032;19.566;2024-03-08T07:29:27;99195.92;;;0.85;63.88
84271;BME280;74614;50.032;19.566;2024-03-08T07:32:05;99188.82;;;0.84;64.18
84271;BME280;74614;50.032;19.566;2024-03-08T07:34:27;99184.16;;;0.87;63.77
84271;BME280;74614;50.032;19.566;2024-03-08T07:36:26;99195.96;;;0.81;63.70
84271;BME280;74614;50.032;19.566;2024-03-08T07:38:29;99195.87;;;0.97;63.99
84271;BME280;74614;50.032;19.566;2024-03-08T07:40:30;99190.60;;;1.13;63.81
84271;BME280;74614;50.032;19.566;2024-03-08T07:42:32;99180.39;;;0.77;63.48
84271;BME280;74614;50.032;19.566;2024-03-08T07:44:32;99193.68;;;0.74;63.61
84271;BME280;74614;50.032;19.566;2024-03-08T07:46:35;99199.21;;;0.69;63.88
84271;BME280;74614;50.032;19.566;2024-03-08T07:48:27;99197.78;;;0.76;64.22
84271;BME280;74614;50.032;19.566;2024-03-08T07:50:31;99198.17;;;0.79;64.08
84271;BME280;74614;50.032;19.566;2024-03-08T07:52:29;99193.05;;;0.68;64.11
84271;BME280;74614;50.032;19.566;2024-03-08T07:54:29;99187.72;;;0.87;64.19
84271;BME280;74614;50.032;19.566;2024-03-08T07:56:28;99200.36;;;0.98;63.52
84271;BME280;74614;50.032;19.566;2024-03-08T07:58:27;99185.94;;;0.71;63.79
84271;BME280;74614;50.032;19.566;2024-03-08T08:00:30;99193.60;;;0.64;64.34
84271;BME280;74614;50.032;19.566;2024-03-08T08:02:34;99189.90;;;0.82;63.89
84271;BME280;74614;50.032;19.566;2024-03-08T08:04:32;99195.44;;;0.75;64.45
84271;BME280;74614;50.032;19.566;2024-03-08T08:06:28;99190.34;;;0.81;64.55
84271;BME280;74614;50.032;19.566;2024-03-08T08:08:27;99188.10;;;0.89;64.42
84271;BME280;74614;50.032;19.566;2024-03-08T08:10:28;99186.22;;;0.88;64.06
84271;BME280;74614;50.032;19.566;2024-03-08T08:12:27;99185.39;;;0.98;63.79
84271;BME280;74614;50.032;19.566;2024-03-08T08:14:27;99186.02;;;0.90;64.17
84271;BME280;74614;50.032;19.566;2024-03-08T08:16:30;99183.61;;;0.80;63.49
84271;BME280;74614;50.032;19.566;2024-03-08T08:18:35;99175.10;;;0.78;63.91
84271;BME280;74614;50.032;19.566;2024-03-08T08:20:27;99184.92;;;0.64;63.77
84271;BME280;74614;50.032;19.566;2024-03-08T08:22:27;99180.87;;;0.68;64.38
84271;BME280;74614;50.032;19.566;2024-03-08T08:24:31;99181.82;;;0.70;63.98
84271;BME280;74614;50.032;19.566;2024-03-08T08:26:30;99186.94;;;0.70;64.20
84271;BME280;74614;50.032;19.566;2024-03-08T08:28:28;99193.40;;;0.57;64.32
84271;BME280;74614;50.032;19.566;2024-03-08T08:31:00;99188.96;;;0.56;64.76
84271;BME280;74614;50.032;19.566;2024-03-08T08:33:47;99191.97;;;0.81;64.56
84271;BME280;74614;50.032;19.566;2024-03-08T08:36:41;99196.17;;;0.95;63.85
84271;BME280;74614;50.032;19.566;2024-03-08T08:39:09;99187.43;;;1.01;63.82
84271;BME280;74614;50.032;19.566;2024-03-08T08:41:30;99188.99;;;1.31;63.77
84271;BME280;74614;50.032;19.566;2024-03-08T08:43:33;99187.31;;;1.22;63.18
84271;BME280;74614;50.032;19.566;2024-03-08T08:45:30;99189.73;;;1.08;63.24
84271;BME280;74614;50.032;19.566;2024-03-08T08:47:36;99182.11;;;1.11;63.12
84271;BME280;74614;50.032;19.566;2024-03-08T08:49:33;99192.52;;;1.35;63.57
84271;BME280;74614;50.032;19.566;2024-03-08T08:51:27;99187.02;;;0.95;63.74
84271;BME280;74614;50.032;19.566;2024-03-08T08:53:28;99184.90;;;1.09;64.01
84271;BME280;74614;50.032;19.566;2024-03-08T08:55:34;99184.48;;;1.12;63.69
84271;BME280;74614;50.032;19.566;2024-03-08T08:57:30;99175.37;;;1.03;63.75
84271;BME280;74614;50.032;19.566;2024-03-08T08:59:33;99168.77;;;1.03;63.82
84271;BME280;74614;50.032;19.566;2024-03-08T09:01:29;99181.72;;;0.91;64.10
84271;BME280;74614;50.032;19.566;2024-03-08T09:03:30;99188.66;;;1.02;64.18
84271;BME280;74614;50.032;19.566;2024-03-08T09:05:34;99186.93;;;0.86;63.65
84271;BME280;74614;50.032;19.566;2024-03-08T09:07:37;99186.96;;;0.77;64.13
84271;BME280;74614;50.032;19.566;2024-03-08T09:09:30;99171.77;;;0.73;64.39
84271;BME280;74614;50.032;19.566;2024-03-08T09:11:32;99187.28;;;0.81;64.20
84271;BME280;74614;50.032;19.566;2024-03-08T09:13:29;99192.76;;;0.92;64.02
84271;BME280;74614;50.032;19.566;2024-03-08T09:15:30;99182.94;;;0.86;64.22
84271;BME280;74614;50.032;19.566;2024-03-08T09:17:29;99177.40;;;0.91;64.44
84271;BME280;74614;50.032;19.566;2024-03-08T09:19:30;99182.24;;;0.68;64.45
84271;BME280;74614;50.032;19.566;2024-03-08T09:21:27;99185.41;;;0.81;64.58
84271;BME280;74614;50.032;19.566;2024-03-08T09:23:41;99183.65;;;0.95;63.86
84271;BME280;74614;50.032;19.566;2024-03-08T09:26:38;99179.61;;;1.08;64.11
84271;BME280;74614;50.032;19.566;2024-03-08T09:29:28;99178.89;;;1.18;63.61
84271;BME280;74614;50.032;19.566;2024-03-08T09:31:36;99184.39;;;1.34;63.64
84271;BME280;74614;50.032;19.566;2024-03-08T09:33:33;99182.16;;;1.39;63.47
84271;BME280;74614;50.032;19.566;2024-03-08T09:35:32;99184.79;;;1.41;62.80
84271;BME280;74614;50.032;19.566;2024-03-08T09:37:30;99180.67;;;1.35;62.66
84271;BME280;74614;50.032;19.566;2024-03-08T09:39:31;99182.60;;;1.28;62.87
84271;BME280;74614;50.032;19.566;2024-03-08T09:41:33;99170.84;;;1.23;62.96
84271;BME280;74614;50.032;19.566;2024-03-08T09:43:56;99167.97;;;1.09;63.41
84271;BME280;74614;50.032;19.566;2024-03-08T09:47:03;99172.95;;;1.21;63.57
84271;BME280;74614;50.032;19.566;2024-03-08T09:49:31;99175.27;;;1.14;63.71
84271;BME280;74614;50.032;19.566;2024-03-08T09:51:35;99175.35;;;1.14;63.67
84271;BME280;74614;50.032;19.566;2024-03-08T09:53:28;99176.82;;;1.29;63.47
84271;BME280;74614;50.032;19.566;2024-03-08T09:55:29;99173.84;;;1.40;63.45
84271;BME280;74614;50.032;19.566;2024-03-08T09:57:28;99169.57;;;1.50;63.47
84271;BME280;74614;50.032;19.566;2024-03-08T09:59:56;99171.15;;;1.57;63.39
84271;BME280;74614;50.032;19.566;2024-03-08T10:02:36;99169.34;;;1.43;62.99
84271;BME280;74614;50.032;19.566;2024-03-08T10:05:31;99160.70;;;1.47;62.79
84271;BME280;74614;50.032;19.566;2024-03-08T10:07:29;99172.28;;;1.59;62.74
84271;BME280;74614;50.032;19.566;2024-03-08T10:09:29;99172.04;;;1.62;62.50
84271;BME280;74614;50.032;19.566;2024-03-08T10:11:27;99165.43;;;1.53;62.93
84271;BME280;74614;50.032;19.566;2024-03-08T10:13:29;99164.58;;;1.50;62.76
84271;BME280;74614;50.032;19.566;2024-03-08T10:15:28;99169.45;;;1.57;62.49
84271;BME280;74614;50.032;19.566;2024-03-08T10:17:28;99170.70;;;1.54;62.63
84271;BME280;74614;50.032;19.566;2024-03-08T10:19:29;99165.94;;;1.59;62.45
84271;BME280;74614;50.032;19.566;2024-03-08T10:21:29;99164.58;;;1.57;63.38
84271;BME280;74614;50.032;19.566;2024-03-08T10:23:36;99162.28;;;1.73;61.80
84271;BME280;74614;50.032;19.566;2024-03-08T10:26:30;99164.32;;;1.93;61.89
84271;BME280;74614;50.032;19.566;2024-03-08T10:28:27;99151.48;;;1.89;61.65
84271;BME280;74614;50.032;19.566;2024-03-08T10:30:26;99158.09;;;2.24;61.86
84271;BME280;74614;50.032;19.566;2024-03-08T10:32:21;99153.84;;;2.13;61.08
84271;BME280;74614;50.032;19.566;2024-03-08T10:34:26;99154.36;;;2.19;61.57
84271;BME280;74614;50.032;19.566;2024-03-08T10:36:20;99162.45;;;2.43;61.08
84271;BME280;74614;50.032;19.566;2024-03-08T10:38:26;99161.58;;;2.28;60.53
84271;BME280;74614;50.032;19.566;2024-03-08T10:41:33;99156.13;;;1.85;60.98
84271;BME280;74614;50.032;19.566;2024-03-08T10:44:36;99156.21;;;2.06;62.10
84271;BME280;74614;50.032;19.566;2024-03-08T10:47:30;99154.38;;;2.21;61.37
84271;BME280;74614;50.032;19.566;2024-03-08T10:49:32;99150.07;;;2.06;61.63
84271;BME280;74614;50.032;19.566;2024-03-08T10:51:29;99149.27;;;2.00;61.30
84271;BME280;74614;50.032;19.566;2024-03-08T10:53:30;99159.34;;;1.92;61.29
84271;BME280;74614;50.032;19.566;2024-03-08T10:55:30;99151.63;;;2.01;61.47
84271;BME280;74614;50.032;19.566;2024-03-08T10:57:28;99155.66;;;1.92;61.50
84271;BME280;74614;50.032;19.566;2024-03-08T10:59:47;99158.54;;;1.72;61.18
84271;BME280;74614;50.032;19.566;2024-03-08T11:02:33;99144.54;;;2.15;61.26
84271;BME280;74614;50.032;19.566;2024-03-08T11:04:33;99139.21;;;2.35;61.40
84271;BME280;74614;50.032;19.566;2024-03-08T11:06:42;99132.42;;;2.42;60.28
84271;BME280;74614;50.032;19.566;2024-03-08T11:09:32;99137.77;;;2.41;60.79
84271;BME280;74614;50.032;19.566;2024-03-08T11:11:29;99138.51;;;2.29;60.43
84271;BME280;74614;50.032;19.566;2024-03-08T11:13:34;99132.48;;;2.21;59.95
84271;BME280;74614;50.032;19.566;2024-03-08T11:15:33;99133.09;;;2.10;60.21
84271;BME280;74614;50.032;19.566;2024-03-08T11:17:46;99130.14;;;2.27;60.35
84271;BME280;74614;50.032;19.566;2024-03-08T11:20:28;99130.16;;;2.52;59.96
84271;BME280;74614;50.032;19.566;2024-03-08T11:22:34;99122.47;;;2.48;59.76
84271;BME280;74614;50.032;19.566;2024-03-08T11:24:38;99121.25;;;2.79;59.46
84271;BME280;74614;50.032;19.566;2024-03-08T11:26:40;99123.14;;;2.91;58.36
84271;BME280;74614;50.032;19.566;2024-03-08T11:29:36;99122.25;;;3.10;58.25
84271;BME280;74614;50.032;19.566;2024-03-08T11:31:31;99120.64;;;2.84;58.05